sensor_id;sensor_type;location;lat;lon;timestamp;P1;durP1;ratioP1;P2;durP2;ratioP2
16393;SDS011;8306;51.128;4.476;2023-07-29T00:02:12;1.00;;;0.90;;
16393;SDS011;8306;51.128;4.476;2023-07-29T00:04:39;0.80;;;0.80;;
16393;SDS011;8306;51.128;4.476;2023-07-29T00:07:05;1.23;;;1.00;;
16393;SDS011;8306;51.128;4.476;2023-07-29T00:09:32;6.60;;;1.00;;
16393;SDS011;8306;51.128;4.476;2023-07-29T00:11:58;1.00;;;0.77;;
16393;SDS011;8306;51.128;4.476;2023-07-29T00:14:25;0.80;;;0.80;;
16393;SDS011;8306;51.128;4.476;2023-07-29T00:16:51;1.20;;;1.00;;
16393;SDS011;8306;51.128;4.476;2023-07-29T00:19:18;1.13;;;0.90;;
16393;SDS011;8306;51.128;4.476;2023-07-29T00:21:44;1.13;;;0.80;;
16393;SDS011;8306;51.128;4.476;2023-07-29T00:24:11;1.77;;;0.90;;
16393;SDS011;8306;51.128;4.476;2023-07-29T00:26:37;1.07;;;0.97;;
16393;SDS011;8306;51.128;4.476;2023-07-29T00:29:03;1.17;;;1.07;;
16393;SDS011;8306;51.128;4.476;2023-07-29T00:31:30;1.30;;;1.20;;
16393;SDS011;8306;51.128;4.476;2023-07-29T00:33:56;1.30;;;1.00;;
16393;SDS011;8306;51.128;4.476;2023-07-29T00:36:23;1.00;;;0.90;;
16393;SDS011;8306;51.128;4.476;2023-07-29T00:38:49;0.97;;;0.90;;
16393;SDS011;8306;51.128;4.476;2023-07-29T00:41:16;1.13;;;1.07;;
16393;SDS011;8306;51.128;4.476;2023-07-29T00:43:42;1.43;;;1.10;;
16393;SDS011;8306;51.128;4.476;2023-07-29T00:46:09;1.00;;;1.00;;
16393;SDS011;8306;51.128;4.476;2023-07-29T00:48:35;1.33;;;1.23;;
16393;SDS011;8306;51.128;4.476;2023-07-29T00:51:02;1.50;;;1.20;;
16393;SDS011;8306;51.128;4.476;2023-07-29T00:53:28;1.33;;;1.23;;
16393;SDS011;8306;51.128;4.476;2023-07-29T00:55:55;1.77;;;1.17;;
16393;SDS011;8306;51.128;4.476;2023-07-29T00:58:21;1.50;;;1.30;;
16393;SDS011;8306;51.128;4.476;2023-07-29T01:00:48;1.47;;;1.10;;
16393;SDS011;8306;51.128;4.476;2023-07-29T01:03:14;1.50;;;1.07;;
16393;SDS011;8306;51.128;4.476;2023-07-29T01:06:24;1.20;;;1.20;;
16393;SDS011;8306;51.128;4.476;2023-07-29T01:08:24;1.50;;;1.20;;
16393;SDS011;8306;51.128;4.476;2023-07-29T01:13:26;1.53;;;1.43;;
16393;SDS011;8306;51.128;4.476;2023-07-29T01:15:58;1.70;;;1.13;;
16393;SDS011;8306;51.128;4.476;2023-07-29T01:18:23;1.77;;;1.40;;
16393;SDS011;8306;51.128;4.476;2023-07-29T01:20:54;1.37;;;1.10;;
16393;SDS011;8306;51.128;4.476;2023-07-29T01:23:23;1.50;;;1.40;;
16393;SDS011;8306;51.128;4.476;2023-07-29T01:25:47;1.93;;;1.30;;
16393;SDS011;8306;51.128;4.476;2023-07-29T01:28:14;1.43;;;1.20;;
16393;SDS011;8306;51.128;4.476;2023-07-29T01:30:40;1.10;;;1.00;;
16393;SDS011;8306;51.128;4.476;2023-07-29T01:33:14;1.47;;;1.20;;
16393;SDS011;8306;51.128;4.476;2023-07-29T01:35:37;2.00;;;1.33;;
16393;SDS011;8306;51.128;4.476;2023-07-29T01:38:04;1.27;;;1.20;;
16393;SDS011;8306;51.128;4.476;2023-07-29T01:40:31;1.83;;;1.40;;
16393;SDS011;8306;51.128;4.476;2023-07-29T01:42:58;1.30;;;1.20;;
16393;SDS011;8306;51.128;4.476;2023-07-29T01:45:24;1.60;;;1.23;;
16393;SDS011;8306;51.128;4.476;2023-07-29T01:47:53;1.57;;;1.20;;
16393;SDS011;8306;51.128;4.476;2023-07-29T01:50:20;1.27;;;1.27;;
16393;SDS011;8306;51.128;4.476;2023-07-29T01:52:46;1.33;;;1.23;;
16393;SDS011;8306;51.128;4.476;2023-07-29T01:55:13;1.50;;;1.40;;
16393;SDS011;8306;51.128;4.476;2023-07-29T01:57:39;1.43;;;1.27;;
16393;SDS011;8306;51.128;4.476;2023-07-29T02:00:06;1.30;;;1.20;;
16393;SDS011;8306;51.128;4.476;2023-07-29T02:02:33;1.53;;;1.43;;
16393;SDS011;8306;51.128;4.476;2023-07-29T02:04:59;1.97;;;1.60;;
16393;SDS011;8306;51.128;4.476;2023-07-29T02:07:25;1.70;;;1.60;;
16393;SDS011;8306;51.128;4.476;2023-07-29T02:09:52;1.57;;;1.47;;
16393;SDS011;8306;51.128;4.476;2023-07-29T02:12:18;2.07;;;1.50;;
16393;SDS011;8306;51.128;4.476;2023-07-29T02:14:45;1.50;;;1.40;;
16393;SDS011;8306;51.128;4.476;2023-07-29T02:17:11;1.13;;;1.13;;
16393;SDS011;8306;51.128;4.476;2023-07-29T02:19:38;2.20;;;1.70;;
16393;SDS011;8306;51.128;4.476;2023-07-29T02:22:04;1.53;;;1.43;;
16393;SDS011;8306;51.128;4.476;2023-07-29T02:24:31;1.60;;;1.50;;
16393;SDS011;8306;51.128;4.476;2023-07-29T02:26:57;1.77;;;1.67;;
16393;SDS011;8306;51.128;4.476;2023-07-29T02:29:24;3.13;;;1.80;;
16393;SDS011;8306;51.128;4.476;2023-07-29T02:31:50;3.20;;;1.90;;
16393;SDS011;8306;51.128;4.476;2023-07-29T02:34:17;2.27;;;2.07;;
16393;SDS011;8306;51.128;4.476;2023-07-29T02:36:43;2.00;;;1.87;;
16393;SDS011;8306;51.128;4.476;2023-07-29T02:39:10;2.07;;;1.97;;
16393;SDS011;8306;51.128;4.476;2023-07-29T02:41:36;1.90;;;1.80;;
16393;SDS011;8306;51.128;4.476;2023-07-29T02:44:04;1.80;;;1.70;;
16393;SDS011;8306;51.128;4.476;2023-07-29T02:46:29;2.10;;;1.90;;
16393;SDS011;8306;51.128;4.476;2023-07-29T02:48:56;1.80;;;1.70;;
16393;SDS011;8306;51.128;4.476;2023-07-29T02:51:22;1.80;;;1.70;;
16393;SDS011;8306;51.128;4.476;2023-07-29T02:53:49;1.67;;;1.57;;
16393;SDS011;8306;51.128;4.476;2023-07-29T02:56:15;2.63;;;1.60;;
16393;SDS011;8306;51.128;4.476;2023-07-29T02:58:42;2.10;;;1.90;;
16393;SDS011;8306;51.128;4.476;2023-07-29T03:01:08;1.70;;;1.57;;
16393;SDS011;8306;51.128;4.476;2023-07-29T03:03:34;1.77;;;1.60;;
16393;SDS011;8306;51.128;4.476;2023-07-29T03:06:08;1.60;;;1.50;;
16393;SDS011;8306;51.128;4.476;2023-07-29T03:08:34;1.60;;;1.50;;
16393;SDS011;8306;51.128;4.476;2023-07-29T03:11:10;1.50;;;1.40;;
16393;SDS011;8306;51.128;4.476;2023-07-29T03:13:32;2.13;;;1.70;;
16393;SDS011;8306;51.128;4.476;2023-07-29T03:16:05;1.97;;;1.53;;
16393;SDS011;8306;51.128;4.476;2023-07-29T03:18:31;1.70;;;1.40;;
16393;SDS011;8306;51.128;4.476;2023-07-29T03:20:58;1.20;;;1.20;;
16393;SDS011;8306;51.128;4.476;2023-07-29T03:23:24;2.13;;;1.50;;
16393;SDS011;8306;51.128;4.476;2023-07-29T03:25:51;1.60;;;1.50;;
16393;SDS011;8306;51.128;4.476;2023-07-29T03:28:17;1.97;;;1.20;;
16393;SDS011;8306;51.128;4.476;2023-07-29T03:30:44;2.17;;;1.50;;
16393;SDS011;8306;51.128;4.476;2023-07-29T03:33:10;1.77;;;1.37;;
16393;SDS011;8306;51.128;4.476;2023-07-29T03:35:37;1.63;;;1.53;;
16393;SDS011;8306;51.128;4.476;2023-07-29T03:38:03;2.27;;;1.70;;
16393;SDS011;8306;51.128;4.476;2023-07-29T03:40:30;1.93;;;1.50;;
16393;SDS011;8306;51.128;4.476;2023-07-29T03:42:56;1.50;;;1.40;;
16393;SDS011;8306;51.128;4.476;2023-07-29T03:45:23;2.03;;;1.90;;
16393;SDS011;8306;51.128;4.476;2023-07-29T03:47:49;2.27;;;1.50;;
16393;SDS011;8306;51.128;4.476;2023-07-29T03:50:16;2.47;;;1.40;;
16393;SDS011;8306;51.128;4.476;2023-07-29T03:52:42;1.30;;;1.20;;
16393;SDS011;8306;51.128;4.476;2023-07-29T03:55:09;1.37;;;1.27;;
16393;SDS011;8306;51.128;4.476;2023-07-29T03:57:35;1.60;;;1.50;;
16393;SDS011;8306;51.128;4.476;2023-07-29T04:00:02;1.93;;;1.50;;
16393;SDS011;8306;51.128;4.476;2023-07-29T04:02:28;1.77;;;1.67;;
16393;SDS011;8306;51.128;4.476;2023-07-29T04:04:55;2.10;;;1.90;;
16393;SDS011;8306;51.128;4.476;2023-07-29T04:07:21;1.47;;;1.40;;
16393;SDS011;8306;51.128;4.476;2023-07-29T04:09:48;1.57;;;1.43;;
16393;SDS011;8306;51.128;4.476;2023-07-29T04:12:14;1.73;;;1.50;;
16393;SDS011;8306;51.128;4.476;2023-07-29T04:14:41;2.60;;;1.63;;
16393;SDS011;8306;51.128;4.476;2023-07-29T04:17:07;1.60;;;1.50;;
16393;SDS011;8306;51.128;4.476;2023-07-29T04:19:34;1.87;;;1.53;;
16393;SDS011;8306;51.128;4.476;2023-07-29T04:22:00;1.60;;;1.50;;
16393;SDS011;8306;51.128;4.476;2023-07-29T04:24:27;1.63;;;1.40;;
16393;SDS011;8306;51.128;4.476;2023-07-29T04:26:53;2.30;;;1.60;;
16393;SDS011;8306;51.128;4.476;2023-07-29T04:29:19;1.80;;;1.40;;
16393;SDS011;8306;51.128;4.476;2023-07-29T04:31:46;1.23;;;1.20;;
16393;SDS011;8306;51.128;4.476;2023-07-29T04:34:12;1.53;;;1.43;;
16393;SDS011;8306;51.128;4.476;2023-07-29T04:36:39;1.77;;;1.30;;
16393;SDS011;8306;51.128;4.476;2023-07-29T04:39:05;1.00;;;0.90;;
16393;SDS011;8306;51.128;4.476;2023-07-29T04:41:32;1.23;;;0.90;;
16393;SDS011;8306;51.128;4.476;2023-07-29T04:43:58;2.10;;;1.00;;
16393;SDS011;8306;51.128;4.476;2023-07-29T04:46:25;1.27;;;0.90;;
16393;SDS011;8306;51.128;4.476;2023-07-29T04:48:51;0.93;;;0.70;;
16393;SDS011;8306;51.128;4.476;2023-07-29T04:51:18;0.70;;;0.70;;
16393;SDS011;8306;51.128;4.476;2023-07-29T04:53:44;0.80;;;0.80;;
16393;SDS011;8306;51.128;4.476;2023-07-29T04:56:11;1.17;;;0.80;;
16393;SDS011;8306;51.128;4.476;2023-07-29T04:58:37;1.20;;;1.03;;
16393;SDS011;8306;51.128;4.476;2023-07-29T05:01:04;1.00;;;0.77;;
16393;SDS011;8306;51.128;4.476;2023-07-29T05:03:30;1.07;;;0.60;;
16393;SDS011;8306;51.128;4.476;2023-07-29T05:05:57;1.13;;;0.70;;
16393;SDS011;8306;51.128;4.476;2023-07-29T05:08:23;0.70;;;0.60;;
16393;SDS011;8306;51.128;4.476;2023-07-29T05:10:52;0.90;;;0.90;;
16393;SDS011;8306;51.128;4.476;2023-07-29T05:13:16;0.80;;;0.80;;
16393;SDS011;8306;51.128;4.476;2023-07-29T05:15:43;0.77;;;0.77;;
16393;SDS011;8306;51.128;4.476;2023-07-29T05:18:09;1.37;;;0.83;;
16393;SDS011;8306;51.128;4.476;2023-07-29T05:20:36;1.23;;;0.73;;
16393;SDS011;8306;51.128;4.476;2023-07-29T05:23:02;1.33;;;1.27;;
16393;SDS011;8306;51.128;4.476;2023-07-29T05:25:29;1.03;;;1.03;;
16393;SDS011;8306;51.128;4.476;2023-07-29T05:27:55;1.23;;;1.07;;
16393;SDS011;8306;51.128;4.476;2023-07-29T05:30:21;1.20;;;1.10;;
16393;SDS011;8306;51.128;4.476;2023-07-29T05:32:48;1.00;;;1.00;;
16393;SDS011;8306;51.128;4.476;2023-07-29T05:35:14;1.07;;;1.00;;
16393;SDS011;8306;51.128;4.476;2023-07-29T05:37:41;0.70;;;0.70;;
16393;SDS011;8306;51.128;4.476;2023-07-29T05:40:07;1.10;;;0.60;;
16393;SDS011;8306;51.128;4.476;2023-07-29T05:42:34;0.70;;;0.60;;
16393;SDS011;8306;51.128;4.476;2023-07-29T05:45:01;0.80;;;0.60;;
16393;SDS011;8306;51.128;4.476;2023-07-29T05:47:27;0.90;;;0.90;;
16393;SDS011;8306;51.128;4.476;2023-07-29T05:49:53;0.87;;;0.70;;
16393;SDS011;8306;51.128;4.476;2023-07-29T05:52:20;1.73;;;0.73;;
16393;SDS011;8306;51.128;4.476;2023-07-29T05:54:46;0.60;;;0.60;;
16393;SDS011;8306;51.128;4.476;2023-07-29T05:57:13;1.33;;;0.90;;
16393;SDS011;8306;51.128;4.476;2023-07-29T05:59:39;0.60;;;0.60;;
16393;SDS011;8306;51.128;4.476;2023-07-29T06:02:06;0.70;;;0.70;;
16393;SDS011;8306;51.128;4.476;2023-07-29T06:04:32;0.80;;;0.70;;
16393;SDS011;8306;51.128;4.476;2023-07-29T06:06:59;1.10;;;0.67;;
16393;SDS011;8306;51.128;4.476;2023-07-29T06:09:25;1.10;;;1.00;;
16393;SDS011;8306;51.128;4.476;2023-07-29T06:11:52;5.03;;;1.00;;
16393;SDS011;8306;51.128;4.476;2023-07-29T06:14:18;0.70;;;0.70;;
16393;SDS011;8306;51.128;4.476;2023-07-29T06:16:45;0.70;;;0.70;;
16393;SDS011;8306;51.128;4.476;2023-07-29T06:19:11;1.00;;;0.60;;
16393;SDS011;8306;51.128;4.476;2023-07-29T06:21:37;0.70;;;0.67;;
16393;SDS011;8306;51.128;4.476;2023-07-29T06:24:04;0.57;;;0.50;;
16393;SDS011;8306;51.128;4.476;2023-07-29T06:26:30;0.90;;;0.90;;
16393;SDS011;8306;51.128;4.476;2023-07-29T06:28:57;0.97;;;0.70;;
16393;SDS011;8306;51.128;4.476;2023-07-29T06:31:23;0.90;;;0.60;;
16393;SDS011;8306;51.128;4.476;2023-07-29T06:33:50;0.80;;;0.80;;
16393;SDS011;8306;51.128;4.476;2023-07-29T06:36:16;1.67;;;0.83;;
16393;SDS011;8306;51.128;4.476;2023-07-29T06:38:43;0.80;;;0.80;;
16393;SDS011;8306;51.128;4.476;2023-07-29T06:41:09;0.70;;;0.60;;
16393;SDS011;8306;51.128;4.476;2023-07-29T06:43:36;1.00;;;0.70;;
16393;SDS011;8306;51.128;4.476;2023-07-29T06:46:02;0.93;;;0.93;;
16393;SDS011;8306;51.128;4.476;2023-07-29T06:48:29;0.77;;;0.77;;
16393;SDS011;8306;51.128;4.476;2023-07-29T06:50:55;0.93;;;0.80;;
16393;SDS011;8306;51.128;4.476;2023-07-29T06:53:22;0.67;;;0.67;;
16393;SDS011;8306;51.128;4.476;2023-07-29T06:55:48;1.80;;;0.60;;
16393;SDS011;8306;51.128;4.476;2023-07-29T06:58:15;0.60;;;0.60;;
16393;SDS011;8306;51.128;4.476;2023-07-29T07:00:41;0.70;;;0.70;;
16393;SDS011;8306;51.128;4.476;2023-07-29T07:03:08;1.20;;;1.10;;
16393;SDS011;8306;51.128;4.476;2023-07-29T07:05:34;0.80;;;0.70;;
16393;SDS011;8306;51.128;4.476;2023-07-29T07:08:01;0.67;;;0.67;;
16393;SDS011;8306;51.128;4.476;2023-07-29T07:10:27;0.87;;;0.70;;
16393;SDS011;8306;51.128;4.476;2023-07-29T07:12:54;0.73;;;0.67;;
16393;SDS011;8306;51.128;4.476;2023-07-29T07:15:20;0.70;;;0.70;;
16393;SDS011;8306;51.128;4.476;2023-07-29T07:17:46;0.80;;;0.80;;
16393;SDS011;8306;51.128;4.476;2023-07-29T07:20:13;0.60;;;0.60;;
16393;SDS011;8306;51.128;4.476;2023-07-29T07:22:39;1.43;;;0.60;;
16393;SDS011;8306;51.128;4.476;2023-07-29T07:25:06;0.87;;;0.80;;
16393;SDS011;8306;51.128;4.476;2023-07-29T07:27:32;0.60;;;0.60;;
16393;SDS011;8306;51.128;4.476;2023-07-29T07:29:59;1.03;;;0.70;;
16393;SDS011;8306;51.128;4.476;2023-07-29T07:32:25;0.57;;;0.53;;
16393;SDS011;8306;51.128;4.476;2023-07-29T07:34:52;0.80;;;0.80;;
16393;SDS011;8306;51.128;4.476;2023-07-29T07:37:18;0.70;;;0.70;;
16393;SDS011;8306;51.128;4.476;2023-07-29T07:39:45;0.60;;;0.60;;
16393;SDS011;8306;51.128;4.476;2023-07-29T07:42:11;0.60;;;0.60;;
16393;SDS011;8306;51.128;4.476;2023-07-29T07:44:38;0.80;;;0.80;;
16393;SDS011;8306;51.128;4.476;2023-07-29T07:47:04;2.17;;;1.00;;
16393;SDS011;8306;51.128;4.476;2023-07-29T07:49:31;0.77;;;0.70;;
16393;SDS011;8306;51.128;4.476;2023-07-29T07:51:57;0.83;;;0.83;;
16393;SDS011;8306;51.128;4.476;2023-07-29T07:54:24;1.23;;;0.80;;
16393;SDS011;8306;51.128;4.476;2023-07-29T07:56:50;1.77;;;0.80;;
16393;SDS011;8306;51.128;4.476;2023-07-29T07:59:17;0.70;;;0.50;;
16393;SDS011;8306;51.128;4.476;2023-07-29T08:01:43;0.60;;;0.60;;
16393;SDS011;8306;51.128;4.476;2023-07-29T08:04:10;2.00;;;0.90;;
16393;SDS011;8306;51.128;4.476;2023-07-29T08:06:36;1.00;;;0.90;;
16393;SDS011;8306;51.128;4.476;2023-07-29T08:09:03;0.83;;;0.80;;
16393;SDS011;8306;51.128;4.476;2023-07-29T08:11:29;0.63;;;0.60;;
16393;SDS011;8306;51.128;4.476;2023-07-29T08:13:55;0.73;;;0.70;;
16393;SDS011;8306;51.128;4.476;2023-07-29T08:16:22;0.97;;;0.73;;
16393;SDS011;8306;51.128;4.476;2023-07-29T08:18:48;0.90;;;0.90;;
16393;SDS011;8306;51.128;4.476;2023-07-29T08:21:15;1.27;;;0.93;;
16393;SDS011;8306;51.128;4.476;2023-07-29T08:23:41;0.63;;;0.60;;
16393;SDS011;8306;51.128;4.476;2023-07-29T08:26:08;1.17;;;0.82;;
16393;SDS011;8306;51.128;4.476;2023-07-29T08:28:35;0.93;;;0.90;;
16393;SDS011;8306;51.128;4.476;2023-07-29T08:31:01;0.75;;;0.75;;
16393;SDS011;8306;51.128;4.476;2023-07-29T08:33:28;0.90;;;0.90;;
16393;SDS011;8306;51.128;4.476;2023-07-29T08:35:54;0.70;;;0.70;;
16393;SDS011;8306;51.128;4.476;2023-07-29T08:38:20;1.87;;;0.80;;
16393;SDS011;8306;51.128;4.476;2023-07-29T08:40:50;1.02;;;0.70;;
16393;SDS011;8306;51.128;4.476;2023-07-29T08:43:16;0.68;;;0.68;;
16393;SDS011;8306;51.128;4.476;2023-07-29T08:45:42;0.70;;;0.70;;
16393;SDS011;8306;51.128;4.476;2023-07-29T08:48:09;1.02;;;0.80;;
16393;SDS011;8306;51.128;4.476;2023-07-29T08:50:36;0.80;;;0.80;;
16393;SDS011;8306;51.128;4.476;2023-07-29T08:53:05;0.88;;;0.70;;
16393;SDS011;8306;51.128;4.476;2023-07-29T08:55:28;0.70;;;0.70;;
16393;SDS011;8306;51.128;4.476;2023-07-29T08:57:55;1.10;;;1.00;;
16393;SDS011;8306;51.128;4.476;2023-07-29T09:00:21;0.93;;;0.70;;
16393;SDS011;8306;51.128;4.476;2023-07-29T09:02:48;1.42;;;0.70;;
16393;SDS011;8306;51.128;4.476;2023-07-29T09:05:14;0.80;;;0.80;;
16393;SDS011;8306;51.128;4.476;2023-07-29T09:07:41;0.75;;;0.75;;
16393;SDS011;8306;51.128;4.476;2023-07-29T09:10:10;0.70;;;0.70;;
16393;SDS011;8306;51.128;4.476;2023-07-29T09:12:36;0.80;;;0.80;;
16393;SDS011;8306;51.128;4.476;2023-07-29T09:15:03;0.70;;;0.70;;
16393;SDS011;8306;51.128;4.476;2023-07-29T09:17:33;0.88;;;0.88;;
16393;SDS011;8306;51.128;4.476;2023-07-29T09:19:59;0.80;;;0.80;;
16393;SDS011;8306;51.128;4.476;2023-07-29T09:22:26;0.75;;;0.75;;
16393;SDS011;8306;51.128;4.476;2023-07-29T09:24:52;0.80;;;0.80;;
16393;SDS011;8306;51.128;4.476;2023-07-29T09:27:25;0.75;;;0.75;;
16393;SDS011;8306;51.128;4.476;2023-07-29T09:29:51;1.05;;;0.93;;
16393;SDS011;8306;51.128;4.476;2023-07-29T09:32:18;0.90;;;0.90;;
16393;SDS011;8306;51.128;4.476;2023-07-29T09:34:44;0.90;;;0.88;;
16393;SDS011;8306;51.128;4.476;2023-07-29T09:37:15;0.70;;;0.62;;
16393;SDS011;8306;51.128;4.476;2023-07-29T09:39:37;1.37;;;1.08;;
16393;SDS011;8306;51.128;4.476;2023-07-29T09:42:03;1.33;;;0.85;;
16393;SDS011;8306;51.128;4.476;2023-07-29T09:44:35;1.23;;;1.12;;
16393;SDS011;8306;51.128;4.476;2023-07-29T09:46:56;1.40;;;1.30;;
16393;SDS011;8306;51.128;4.476;2023-07-29T09:49:23;1.77;;;1.20;;
16393;SDS011;8306;51.128;4.476;2023-07-29T09:51:49;1.43;;;1.10;;
16393;SDS011;8306;51.128;4.476;2023-07-29T09:54:16;1.77;;;1.30;;
16393;SDS011;8306;51.128;4.476;2023-07-29T09:56:43;1.20;;;1.10;;
16393;SDS011;8306;51.128;4.476;2023-07-29T09:59:09;1.10;;;1.03;;
16393;SDS011;8306;51.128;4.476;2023-07-29T10:01:35;1.77;;;1.27;;
16393;SDS011;8306;51.128;4.476;2023-07-29T10:04:02;1.27;;;1.17;;
16393;SDS011;8306;51.128;4.476;2023-07-29T10:06:28;1.73;;;1.30;;
16393;SDS011;8306;51.128;4.476;2023-07-29T10:08:55;2.40;;;1.40;;
16393;SDS011;8306;51.128;4.476;2023-07-29T10:11:21;1.93;;;1.37;;
16393;SDS011;8306;51.128;4.476;2023-07-29T10:13:48;1.53;;;1.43;;
16393;SDS011;8306;51.128;4.476;2023-07-29T10:16:14;1.53;;;1.20;;
16393;SDS011;8306;51.128;4.476;2023-07-29T10:18:41;1.40;;;1.30;;
16393;SDS011;8306;51.128;4.476;2023-07-29T10:21:07;1.30;;;0.70;;
16393;SDS011;8306;51.128;4.476;2023-07-29T10:23:35;1.90;;;0.93;;
16393;SDS011;8306;51.128;4.476;2023-07-29T10:26:04;0.70;;;0.70;;
16393;SDS011;8306;51.128;4.476;2023-07-29T10:28:30;1.00;;;0.90;;
16393;SDS011;8306;51.128;4.476;2023-07-29T10:30:56;2.00;;;0.90;;
16393;SDS011;8306;51.128;4.476;2023-07-29T10:33:22;0.60;;;0.60;;
16393;SDS011;8306;51.128;4.476;2023-07-29T10:35:49;0.60;;;0.60;;
16393;SDS011;8306;51.128;4.476;2023-07-29T10:38:15;0.80;;;0.80;;
16393;SDS011;8306;51.128;4.476;2023-07-29T10:43:11;0.97;;;0.83;;
16393;SDS011;8306;51.128;4.476;2023-07-29T10:45:38;0.77;;;0.77;;
16393;SDS011;8306;51.128;4.476;2023-07-29T10:48:09;2.53;;;0.90;;
16393;SDS011;8306;51.128;4.476;2023-07-29T10:50:36;0.77;;;0.77;;
16393;SDS011;8306;51.128;4.476;2023-07-29T10:53:02;1.40;;;0.90;;
16393;SDS011;8306;51.128;4.476;2023-07-29T10:55:32;0.80;;;0.80;;
16393;SDS011;8306;51.128;4.476;2023-07-29T10:58:05;1.30;;;1.00;;
16393;SDS011;8306;51.128;4.476;2023-07-29T11:00:42;1.00;;;0.90;;
16393;SDS011;8306;51.128;4.476;2023-07-29T11:03:12;0.80;;;0.80;;
16393;SDS011;8306;51.128;4.476;2023-07-29T11:05:47;0.80;;;0.80;;
16393;SDS011;8306;51.128;4.476;2023-07-29T11:08:22;1.12;;;0.90;;
16393;SDS011;8306;51.128;4.476;2023-07-29T11:10:57;0.90;;;0.77;;
16393;SDS011;8306;51.128;4.476;2023-07-29T11:13:12;0.90;;;0.90;;
16393;SDS011;8306;51.128;4.476;2023-07-29T11:15:38;0.90;;;0.90;;
16393;SDS011;8306;51.128;4.476;2023-07-29T11:18:05;0.88;;;0.88;;
16393;SDS011;8306;51.128;4.476;2023-07-29T11:20:32;1.07;;;0.87;;
16393;SDS011;8306;51.128;4.476;2023-07-29T11:23:00;0.80;;;0.80;;
16393;SDS011;8306;51.128;4.476;2023-07-29T11:25:27;4.73;;;1.10;;
16393;SDS011;8306;51.128;4.476;2023-07-29T11:27:54;0.83;;;0.83;;
16393;SDS011;8306;51.128;4.476;2023-07-29T11:30:20;1.17;;;0.70;;
16393;SDS011;8306;51.128;4.476;2023-07-29T11:32:46;0.90;;;0.90;;
16393;SDS011;8306;51.128;4.476;2023-07-29T11:35:13;0.80;;;0.80;;
16393;SDS011;8306;51.128;4.476;2023-07-29T11:37:44;0.80;;;0.80;;
16393;SDS011;8306;51.128;4.476;2023-07-29T11:40:15;0.73;;;0.73;;
16393;SDS011;8306;51.128;4.476;2023-07-29T11:42:41;2.30;;;0.80;;
16393;SDS011;8306;51.128;4.476;2023-07-29T11:45:07;1.00;;;1.00;;
16393;SDS011;8306;51.128;4.476;2023-07-29T11:47:34;1.30;;;0.90;;
16393;SDS011;8306;51.128;4.476;2023-07-29T11:50:04;0.80;;;0.80;;
16393;SDS011;8306;51.128;4.476;2023-07-29T11:52:30;1.47;;;1.13;;
16393;SDS011;8306;51.128;4.476;2023-07-29T11:54:56;1.43;;;0.83;;
16393;SDS011;8306;51.128;4.476;2023-07-29T11:57:23;1.67;;;1.10;;
16393;SDS011;8306;51.128;4.476;2023-07-29T11:59:49;1.73;;;1.27;;
16393;SDS011;8306;51.128;4.476;2023-07-29T12:02:16;2.73;;;1.07;;
16393;SDS011;8306;51.128;4.476;2023-07-29T12:04:43;1.00;;;1.00;;
16393;SDS011;8306;51.128;4.476;2023-07-29T12:07:08;0.90;;;0.90;;
16393;SDS011;8306;51.128;4.476;2023-07-29T12:09:35;1.00;;;0.90;;
16393;SDS011;8306;51.128;4.476;2023-07-29T12:12:04;0.80;;;0.80;;
16393;SDS011;8306;51.128;4.476;2023-07-29T12:14:28;0.70;;;0.70;;
16393;SDS011;8306;51.128;4.476;2023-07-29T12:16:54;0.70;;;0.70;;
16393;SDS011;8306;51.128;4.476;2023-07-29T12:19:21;1.57;;;1.00;;
16393;SDS011;8306;51.128;4.476;2023-07-29T12:21:50;0.80;;;0.80;;
16393;SDS011;8306;51.128;4.476;2023-07-29T12:24:16;2.53;;;0.50;;
16393;SDS011;8306;51.128;4.476;2023-07-29T12:26:43;0.70;;;0.70;;
16393;SDS011;8306;51.128;4.476;2023-07-29T12:29:13;0.70;;;0.70;;
16393;SDS011;8306;51.128;4.476;2023-07-29T12:31:39;0.67;;;0.67;;
16393;SDS011;8306;51.128;4.476;2023-07-29T12:34:05;1.33;;;0.70;;
16393;SDS011;8306;51.128;4.476;2023-07-29T12:36:54;1.43;;;0.70;;
16393;SDS011;8306;51.128;4.476;2023-07-29T12:39:19;0.80;;;0.80;;
16393;SDS011;8306;51.128;4.476;2023-07-29T12:41:46;1.00;;;0.90;;
16393;SDS011;8306;51.128;4.476;2023-07-29T12:44:12;0.70;;;0.70;;
16393;SDS011;8306;51.128;4.476;2023-07-29T12:46:39;0.80;;;0.80;;
16393;SDS011;8306;51.128;4.476;2023-07-29T12:49:05;0.87;;;0.77;;
16393;SDS011;8306;51.128;4.476;2023-07-29T12:51:32;0.97;;;0.97;;
16393;SDS011;8306;51.128;4.476;2023-07-29T12:53:58;0.60;;;0.60;;
16393;SDS011;8306;51.128;4.476;2023-07-29T12:56:24;0.50;;;0.50;;
16393;SDS011;8306;51.128;4.476;2023-07-29T12:58:51;0.50;;;0.50;;
16393;SDS011;8306;51.128;4.476;2023-07-29T13:01:17;0.47;;;0.40;;
16393;SDS011;8306;51.128;4.476;2023-07-29T13:03:44;0.87;;;0.50;;
16393;SDS011;8306;51.128;4.476;2023-07-29T13:06:11;0.40;;;0.40;;
16393;SDS011;8306;51.128;4.476;2023-07-29T13:08:37;1.23;;;0.40;;
16393;SDS011;8306;51.128;4.476;2023-07-29T13:11:03;0.80;;;0.50;;
16393;SDS011;8306;51.128;4.476;2023-07-29T13:13:30;0.57;;;0.30;;
16393;SDS011;8306;51.128;4.476;2023-07-29T13:15:56;0.40;;;0.40;;
16393;SDS011;8306;51.128;4.476;2023-07-29T13:18:23;0.30;;;0.30;;
16393;SDS011;8306;51.128;4.476;2023-07-29T13:20:49;0.97;;;0.50;;
16393;SDS011;8306;51.128;4.476;2023-07-29T13:23:16;1.17;;;0.60;;
16393;SDS011;8306;51.128;4.476;2023-07-29T13:25:42;0.60;;;0.37;;
16393;SDS011;8306;51.128;4.476;2023-07-29T13:28:09;0.50;;;0.40;;
16393;SDS011;8306;51.128;4.476;2023-07-29T13:30:35;0.73;;;0.67;;
16393;SDS011;8306;51.128;4.476;2023-07-29T13:33:02;0.30;;;0.30;;
16393;SDS011;8306;51.128;4.476;2023-07-29T13:35:30;0.40;;;0.40;;
16393;SDS011;8306;51.128;4.476;2023-07-29T13:37:55;0.40;;;0.40;;
16393;SDS011;8306;51.128;4.476;2023-07-29T13:40:21;0.40;;;0.40;;
16393;SDS011;8306;51.128;4.476;2023-07-29T13:42:47;0.30;;;0.30;;
16393;SDS011;8306;51.128;4.476;2023-07-29T13:45:14;0.40;;;0.30;;
16393;SDS011;8306;51.128;4.476;2023-07-29T13:47:40;0.40;;;0.40;;
16393;SDS011;8306;51.128;4.476;2023-07-29T13:50:07;0.63;;;0.43;;
16393;SDS011;8306;51.128;4.476;2023-07-29T13:52:33;0.40;;;0.40;;
16393;SDS011;8306;51.128;4.476;2023-07-29T13:55:00;0.50;;;0.50;;
16393;SDS011;8306;51.128;4.476;2023-07-29T13:57:26;0.57;;;0.57;;
16393;SDS011;8306;51.128;4.476;2023-07-29T13:59:53;1.05;;;0.60;;
16393;SDS011;8306;51.128;4.476;2023-07-29T14:02:19;0.50;;;0.43;;
16393;SDS011;8306;51.128;4.476;2023-07-29T14:04:46;0.40;;;0.40;;
16393;SDS011;8306;51.128;4.476;2023-07-29T14:07:12;0.50;;;0.50;;
16393;SDS011;8306;51.128;4.476;2023-07-29T14:09:39;0.43;;;0.43;;
16393;SDS011;8306;51.128;4.476;2023-07-29T14:12:05;0.40;;;0.40;;
16393;SDS011;8306;51.128;4.476;2023-07-29T14:14:32;0.47;;;0.47;;
16393;SDS011;8306;51.128;4.476;2023-07-29T14:16:58;0.50;;;0.50;;
16393;SDS011;8306;51.128;4.476;2023-07-29T14:19:25;0.50;;;0.50;;
16393;SDS011;8306;51.128;4.476;2023-07-29T14:21:51;0.50;;;0.50;;
16393;SDS011;8306;51.128;4.476;2023-07-29T14:24:18;1.10;;;0.50;;
16393;SDS011;8306;51.128;4.476;2023-07-29T14:26:44;0.50;;;0.40;;
16393;SDS011;8306;51.128;4.476;2023-07-29T14:29:11;1.02;;;0.90;;
16393;SDS011;8306;51.128;4.476;2023-07-29T14:31:37;1.43;;;0.80;;
16393;SDS011;8306;51.128;4.476;2023-07-29T14:34:04;1.70;;;0.70;;
16393;SDS011;8306;51.128;4.476;2023-07-29T14:36:30;1.20;;;1.00;;
16393;SDS011;8306;51.128;4.476;2023-07-29T14:38:57;0.80;;;0.80;;
16393;SDS011;8306;51.128;4.476;2023-07-29T14:41:23;1.97;;;1.10;;
16393;SDS011;8306;51.128;4.476;2023-07-29T14:43:49;7.13;;;1.00;;
16393;SDS011;8306;51.128;4.476;2023-07-29T14:46:16;1.53;;;1.13;;
16393;SDS011;8306;51.128;4.476;2023-07-29T14:48:42;1.63;;;1.07;;
16393;SDS011;8306;51.128;4.476;2023-07-29T14:51:09;1.27;;;0.73;;
16393;SDS011;8306;51.128;4.476;2023-07-29T14:53:35;1.00;;;0.90;;
16393;SDS011;8306;51.128;4.476;2023-07-29T14:56:02;0.80;;;0.80;;
16393;SDS011;8306;51.128;4.476;2023-07-29T14:58:28;0.80;;;0.80;;
16393;SDS011;8306;51.128;4.476;2023-07-29T15:00:55;0.70;;;0.70;;
16393;SDS011;8306;51.128;4.476;2023-07-29T15:03:21;1.00;;;1.00;;